sensor_id;sensor_type;location;lat;lon;timestamp;P1;durP1;ratioP1;P2;durP2;ratioP2
23230;SDS011;11784;49.818;8.632;2022-09-03T00:02:40;0.20;;;0.20;;
23230;SDS011;11784;49.818;8.632;2022-09-03T00:05:22;0.45;;;0.30;;
23230;SDS011;11784;49.818;8.632;2022-09-03T00:16:07;1.17;;;0.32;;
23230;SDS011;11784;49.818;8.632;2022-09-03T00:18:40;0.30;;;0.20;;
23230;SDS011;11784;49.818;8.632;2022-09-03T00:21:13;0.65;;;0.22;;
23230;SDS011;11784;49.818;8.632;2022-09-03T00:23:43;0.70;;;0.43;;
23230;SDS011;11784;49.818;8.632;2022-09-03T00:28:58;0.60;;;0.40;;
23230;SDS011;11784;49.818;8.632;2022-09-03T00:31:44;6.40;;;0.43;;
23230;SDS011;11784;49.818;8.632;2022-09-03T00:34:15;0.55;;;0.30;;
23230;SDS011;11784;49.818;8.632;2022-09-03T00:36:47;0.55;;;0.40;;
23230;SDS011;11784;49.818;8.632;2022-09-03T00:39:17;0.70;;;0.30;;
23230;SDS011;11784;49.818;8.632;2022-09-03T00:47:40;0.40;;;0.20;;
23230;SDS011;11784;49.818;8.632;2022-09-03T00:50:20;0.30;;;0.22;;
23230;SDS011;11784;49.818;8.632;2022-09-03T01:01:17;0.28;;;0.28;;
23230;SDS011;11784;49.818;8.632;2022-09-03T01:07:29;0.60;;;0.30;;
23230;SDS011;11784;49.818;8.632;2022-09-03T01:12:17;0.10;;;0.10;;
23230;SDS011;11784;49.818;8.632;2022-09-03T01:15:00;0.20;;;0.20;;
23230;SDS011;11784;49.818;8.632;2022-09-03T01:23:26;0.32;;;0.20;;
23230;SDS011;11784;49.818;8.632;2022-09-03T01:42:58;1.27;;;0.40;;
23230;SDS011;11784;49.818;8.632;2022-09-03T01:48:13;0.77;;;0.40;;
23230;SDS011;11784;49.818;8.632;2022-09-03T01:53:30;6.22;;;0.40;;
23230;SDS011;11784;49.818;8.632;2022-09-03T01:59:33;0.20;;;0.20;;
23230;SDS011;11784;49.818;8.632;2022-09-03T02:02:09;0.47;;;0.35;;
23230;SDS011;11784;49.818;8.632;2022-09-03T02:04:55;0.70;;;0.30;;
23230;SDS011;11784;49.818;8.632;2022-09-03T02:07:27;0.60;;;0.30;;
23230;SDS011;11784;49.818;8.632;2022-09-03T02:09:58;0.25;;;0.25;;
23230;SDS011;11784;49.818;8.632;2022-09-03T02:12:25;0.82;;;0.20;;
23230;SDS011;11784;49.818;8.632;2022-09-03T02:14:53;0.47;;;0.30;;
23230;SDS011;11784;49.818;8.632;2022-09-03T02:17:19;0.20;;;0.20;;
23230;SDS011;11784;49.818;8.632;2022-09-03T02:19:45;1.20;;;0.82;;
23230;SDS011;11784;49.818;8.632;2022-09-03T02:22:11;0.20;;;0.20;;
23230;SDS011;11784;49.818;8.632;2022-09-03T02:24:37;0.25;;;0.22;;
23230;SDS011;11784;49.818;8.632;2022-09-03T02:27:03;1.08;;;0.25;;
23230;SDS011;11784;49.818;8.632;2022-09-03T02:29:28;0.98;;;0.40;;
23230;SDS011;11784;49.818;8.632;2022-09-03T02:31:54;1.15;;;0.20;;
23230;SDS011;11784;49.818;8.632;2022-09-03T02:34:21;0.13;;;0.13;;
23230;SDS011;11784;49.818;8.632;2022-09-03T02:36:47;0.52;;;0.30;;
23230;SDS011;11784;49.818;8.632;2022-09-03T02:39:13;0.40;;;0.20;;
23230;SDS011;11784;49.818;8.632;2022-09-03T02:41:40;0.40;;;0.30;;
23230;SDS011;11784;49.818;8.632;2022-09-03T02:46:46;0.10;;;0.10;;
23230;SDS011;11784;49.818;8.632;2022-09-03T02:49:15;1.70;;;0.40;;
23230;SDS011;11784;49.818;8.632;2022-09-03T02:51:42;2.55;;;0.30;;
23230;SDS011;11784;49.818;8.632;2022-09-03T02:54:09;0.55;;;0.32;;
23230;SDS011;11784;49.818;8.632;2022-09-03T02:56:35;0.20;;;0.20;;
23230;SDS011;11784;49.818;8.632;2022-09-03T02:59:01;0.40;;;0.30;;
23230;SDS011;11784;49.818;8.632;2022-09-03T03:01:31;0.47;;;0.22;;
23230;SDS011;11784;49.818;8.632;2022-09-03T03:03:56;0.35;;;0.30;;
23230;SDS011;11784;49.818;8.632;2022-09-03T03:06:22;0.30;;;0.30;;
23230;SDS011;11784;49.818;8.632;2022-09-03T03:08:48;0.20;;;0.20;;
23230;SDS011;11784;49.818;8.632;2022-09-03T03:11:15;1.65;;;0.30;;
23230;SDS011;11784;49.818;8.632;2022-09-03T03:13:42;0.40;;;0.20;;
23230;SDS011;11784;49.818;8.632;2022-09-03T03:16:08;0.15;;;0.15;;
23230;SDS011;11784;49.818;8.632;2022-09-03T03:18:34;1.52;;;0.32;;
23230;SDS011;11784;49.818;8.632;2022-09-03T03:21:03;1.35;;;0.40;;
23230;SDS011;11784;49.818;8.632;2022-09-03T03:23:33;0.30;;;0.20;;
23230;SDS011;11784;49.818;8.632;2022-09-03T03:26:00;0.70;;;0.30;;
23230;SDS011;11784;49.818;8.632;2022-09-03T03:28:26;0.55;;;0.38;;
23230;SDS011;11784;49.818;8.632;2022-09-03T03:30:52;0.35;;;0.30;;
23230;SDS011;11784;49.818;8.632;2022-09-03T03:33:18;0.38;;;0.28;;
23230;SDS011;11784;49.818;8.632;2022-09-03T03:35:44;1.15;;;0.52;;
23230;SDS011;11784;49.818;8.632;2022-09-03T03:38:10;0.63;;;0.30;;
23230;SDS011;11784;49.818;8.632;2022-09-03T03:40:36;3.53;;;0.35;;
23230;SDS011;11784;49.818;8.632;2022-09-03T03:43:02;0.35;;;0.20;;
23230;SDS011;11784;49.818;8.632;2022-09-03T03:45:28;0.30;;;0.30;;
23230;SDS011;11784;49.818;8.632;2022-09-03T03:47:57;0.20;;;0.20;;
23230;SDS011;11784;49.818;8.632;2022-09-03T03:50:23;0.40;;;0.20;;
23230;SDS011;11784;49.818;8.632;2022-09-03T03:52:49;1.38;;;0.50;;
23230;SDS011;11784;49.818;8.632;2022-09-03T03:55:14;0.28;;;0.20;;
23230;SDS011;11784;49.818;8.632;2022-09-03T03:57:40;0.30;;;0.17;;
23230;SDS011;11784;49.818;8.632;2022-09-03T04:00:06;0.85;;;0.63;;
23230;SDS011;11784;49.818;8.632;2022-09-03T04:02:32;0.10;;;0.10;;
23230;SDS011;11784;49.818;8.632;2022-09-03T04:04:57;1.38;;;0.63;;
23230;SDS011;11784;49.818;8.632;2022-09-03T04:07:24;0.22;;;0.20;;
23230;SDS011;11784;49.818;8.632;2022-09-03T04:09:49;0.52;;;0.30;;
23230;SDS011;11784;49.818;8.632;2022-09-03T04:12:15;0.85;;;0.38;;
23230;SDS011;11784;49.818;8.632;2022-09-03T04:14:40;0.30;;;0.20;;
23230;SDS011;11784;49.818;8.632;2022-09-03T04:17:06;0.55;;;0.50;;
23230;SDS011;11784;49.818;8.632;2022-09-03T04:19:32;2.00;;;0.30;;
23230;SDS011;11784;49.818;8.632;2022-09-03T04:21:57;0.30;;;0.20;;
23230;SDS011;11784;49.818;8.632;2022-09-03T04:24:23;0.68;;;0.40;;
23230;SDS011;11784;49.818;8.632;2022-09-03T04:26:48;0.22;;;0.20;;
23230;SDS011;11784;49.818;8.632;2022-09-03T04:29:14;0.17;;;0.17;;
23230;SDS011;11784;49.818;8.632;2022-09-03T04:31:39;1.88;;;0.40;;
23230;SDS011;11784;49.818;8.632;2022-09-03T04:34:25;0.65;;;0.30;;
23230;SDS011;11784;49.818;8.632;2022-09-03T04:36:50;0.35;;;0.30;;
23230;SDS011;11784;49.818;8.632;2022-09-03T04:39:16;0.50;;;0.40;;
23230;SDS011;11784;49.818;8.632;2022-09-03T04:41:41;0.20;;;0.20;;
23230;SDS011;11784;49.818;8.632;2022-09-03T04:44:07;0.30;;;0.30;;
23230;SDS011;11784;49.818;8.632;2022-09-03T04:46:32;0.88;;;0.50;;
23230;SDS011;11784;49.818;8.632;2022-09-03T04:48:58;0.50;;;0.38;;
23230;SDS011;11784;49.818;8.632;2022-09-03T04:51:24;1.27;;;0.50;;
23230;SDS011;11784;49.818;8.632;2022-09-03T04:53:57;1.85;;;0.17;;
23230;SDS011;11784;49.818;8.632;2022-09-03T04:56:26;1.30;;;0.30;;
23230;SDS011;11784;49.818;8.632;2022-09-03T04:58:55;0.65;;;0.30;;
23230;SDS011;11784;49.818;8.632;2022-09-03T05:01:22;0.93;;;0.35;;
23230;SDS011;11784;49.818;8.632;2022-09-03T05:03:49;0.40;;;0.35;;
23230;SDS011;11784;49.818;8.632;2022-09-03T05:06:17;1.27;;;0.35;;
23230;SDS011;11784;49.818;8.632;2022-09-03T05:08:46;0.40;;;0.40;;
23230;SDS011;11784;49.818;8.632;2022-09-03T05:11:13;1.30;;;0.55;;
23230;SDS011;11784;49.818;8.632;2022-09-03T05:13:39;1.13;;;0.22;;
23230;SDS011;11784;49.818;8.632;2022-09-03T05:16:05;0.30;;;0.30;;
23230;SDS011;11784;49.818;8.632;2022-09-03T05:18:33;0.57;;;0.30;;
23230;SDS011;11784;49.818;8.632;2022-09-03T05:21:03;1.17;;;0.30;;
23230;SDS011;11784;49.818;8.632;2022-09-03T05:23:34;0.40;;;0.30;;
23230;SDS011;11784;49.818;8.632;2022-09-03T05:26:05;1.15;;;0.50;;
23230;SDS011;11784;49.818;8.632;2022-09-03T05:28:33;0.52;;;0.30;;
23230;SDS011;11784;49.818;8.632;2022-09-03T05:31:18;0.40;;;0.22;;
23230;SDS011;11784;49.818;8.632;2022-09-03T05:33:45;1.38;;;0.43;;
23230;SDS011;11784;49.818;8.632;2022-09-03T05:36:16;0.88;;;0.52;;
23230;SDS011;11784;49.818;8.632;2022-09-03T05:38:49;0.60;;;0.30;;
23230;SDS011;11784;49.818;8.632;2022-09-03T05:41:18;0.93;;;0.40;;
23230;SDS011;11784;49.818;8.632;2022-09-03T05:43:46;0.40;;;0.28;;
23230;SDS011;11784;49.818;8.632;2022-09-03T05:46:26;0.30;;;0.30;;
23230;SDS011;11784;49.818;8.632;2022-09-03T05:48:56;1.05;;;0.35;;
23230;SDS011;11784;49.818;8.632;2022-09-03T05:51:23;0.60;;;0.40;;
23230;SDS011;11784;49.818;8.632;2022-09-03T05:53:49;0.85;;;0.60;;
23230;SDS011;11784;49.818;8.632;2022-09-03T05:56:18;2.00;;;0.38;;
23230;SDS011;11784;49.818;8.632;2022-09-03T05:58:45;0.40;;;0.20;;
23230;SDS011;11784;49.818;8.632;2022-09-03T06:01:16;0.85;;;0.75;;
23230;SDS011;11784;49.818;8.632;2022-09-03T06:03:44;0.47;;;0.38;;
23230;SDS011;11784;49.818;8.632;2022-09-03T06:06:11;1.02;;;0.55;;
23230;SDS011;11784;49.818;8.632;2022-09-03T06:08:38;1.17;;;0.45;;
23230;SDS011;11784;49.818;8.632;2022-09-03T06:11:04;0.52;;;0.40;;
23230;SDS011;11784;49.818;8.632;2022-09-03T06:13:30;0.77;;;0.60;;
23230;SDS011;11784;49.818;8.632;2022-09-03T06:15:57;3.30;;;1.10;;
23230;SDS011;11784;49.818;8.632;2022-09-03T06:18:24;5.60;;;0.75;;
23230;SDS011;11784;49.818;8.632;2022-09-03T06:21:01;2.78;;;0.50;;
23230;SDS011;11784;49.818;8.632;2022-09-03T06:23:29;2.75;;;0.60;;
23230;SDS011;11784;49.818;8.632;2022-09-03T06:26:05;0.50;;;0.40;;
23230;SDS011;11784;49.818;8.632;2022-09-03T06:28:36;2.17;;;0.50;;
23230;SDS011;11784;49.818;8.632;2022-09-03T06:31:06;2.08;;;0.73;;
23230;SDS011;11784;49.818;8.632;2022-09-03T06:33:34;0.77;;;0.57;;
23230;SDS011;11784;49.818;8.632;2022-09-03T06:36:01;1.60;;;0.90;;
23230;SDS011;11784;49.818;8.632;2022-09-03T06:38:29;1.67;;;0.68;;
23230;SDS011;11784;49.818;8.632;2022-09-03T06:40:59;5.32;;;1.02;;
23230;SDS011;11784;49.818;8.632;2022-09-03T06:43:27;0.88;;;0.68;;
23230;SDS011;11784;49.818;8.632;2022-09-03T06:45:55;4.75;;;0.40;;
23230;SDS011;11784;49.818;8.632;2022-09-03T06:48:26;4.88;;;0.85;;
23230;SDS011;11784;49.818;8.632;2022-09-03T06:51:00;2.40;;;0.80;;
23230;SDS011;11784;49.818;8.632;2022-09-03T06:53:32;1.13;;;0.70;;
23230;SDS011;11784;49.818;8.632;2022-09-03T06:55:59;4.65;;;0.80;;
23230;SDS011;11784;49.818;8.632;2022-09-03T06:58:34;0.93;;;0.70;;
23230;SDS011;11784;49.818;8.632;2022-09-03T07:01:04;2.92;;;1.00;;
23230;SDS011;11784;49.818;8.632;2022-09-03T07:03:32;0.80;;;0.40;;
23230;SDS011;11784;49.818;8.632;2022-09-03T07:06:05;2.80;;;1.00;;
23230;SDS011;11784;49.818;8.632;2022-09-03T07:08:32;1.48;;;0.73;;
23230;SDS011;11784;49.818;8.632;2022-09-03T07:10:59;4.72;;;0.88;;
23230;SDS011;11784;49.818;8.632;2022-09-03T07:13:31;1.40;;;0.65;;
23230;SDS011;11784;49.818;8.632;2022-09-03T07:16:04;2.72;;;0.50;;
23230;SDS011;11784;49.818;8.632;2022-09-03T07:18:35;4.60;;;1.25;;
23230;SDS011;11784;49.818;8.632;2022-09-03T07:21:03;1.83;;;0.70;;
23230;SDS011;11784;49.818;8.632;2022-09-03T07:23:34;2.47;;;0.90;;
23230;SDS011;11784;49.818;8.632;2022-09-03T07:26:01;5.85;;;0.93;;
23230;SDS011;11784;49.818;8.632;2022-09-03T07:28:29;0.82;;;0.55;;
23230;SDS011;11784;49.818;8.632;2022-09-03T07:31:01;5.20;;;0.65;;
23230;SDS011;11784;49.818;8.632;2022-09-03T07:36:08;3.45;;;0.93;;
23230;SDS011;11784;49.818;8.632;2022-09-03T07:38:35;0.60;;;0.50;;
23230;SDS011;11784;49.818;8.632;2022-09-03T07:41:02;1.08;;;0.50;;
23230;SDS011;11784;49.818;8.632;2022-09-03T07:43:32;0.35;;;0.32;;
23230;SDS011;11784;49.818;8.632;2022-09-03T07:46:00;0.47;;;0.47;;
23230;SDS011;11784;49.818;8.632;2022-09-03T07:48:26;1.20;;;0.45;;
23230;SDS011;11784;49.818;8.632;2022-09-03T07:50:52;0.63;;;0.55;;
23230;SDS011;11784;49.818;8.632;2022-09-03T07:53:24;1.00;;;0.50;;
23230;SDS011;11784;49.818;8.632;2022-09-03T07:55:50;6.20;;;0.80;;
23230;SDS011;11784;49.818;8.632;2022-09-03T07:58:15;1.15;;;0.50;;
23230;SDS011;11784;49.818;8.632;2022-09-03T08:00:41;0.80;;;0.60;;
23230;SDS011;11784;49.818;8.632;2022-09-03T08:03:07;0.88;;;0.60;;
23230;SDS011;11784;49.818;8.632;2022-09-03T08:05:34;0.95;;;0.60;;
23230;SDS011;11784;49.818;8.632;2022-09-03T08:08:04;1.42;;;0.50;;
23230;SDS011;11784;49.818;8.632;2022-09-03T08:10:33;1.02;;;0.60;;
23230;SDS011;11784;49.818;8.632;2022-09-03T08:13:00;1.48;;;0.60;;
23230;SDS011;11784;49.818;8.632;2022-09-03T08:15:25;2.20;;;0.50;;
23230;SDS011;11784;49.818;8.632;2022-09-03T08:17:51;0.90;;;0.57;;
23230;SDS011;11784;49.818;8.632;2022-09-03T08:20:17;0.30;;;0.30;;
23230;SDS011;11784;49.818;8.632;2022-09-03T08:22:43;1.10;;;0.57;;
23230;SDS011;11784;49.818;8.632;2022-09-03T08:25:09;0.85;;;0.55;;
23230;SDS011;11784;49.818;8.632;2022-09-03T08:27:34;0.63;;;0.40;;
23230;SDS011;11784;49.818;8.632;2022-09-03T08:30:00;1.17;;;0.60;;
23230;SDS011;11784;49.818;8.632;2022-09-03T08:32:25;1.10;;;0.50;;
23230;SDS011;11784;49.818;8.632;2022-09-03T08:34:51;2.05;;;0.50;;
23230;SDS011;11784;49.818;8.632;2022-09-03T08:37:17;0.50;;;0.40;;
23230;SDS011;11784;49.818;8.632;2022-09-03T08:39:43;0.40;;;0.40;;
23230;SDS011;11784;49.818;8.632;2022-09-03T08:42:30;0.40;;;0.30;;
23230;SDS011;11784;49.818;8.632;2022-09-03T08:44:58;0.70;;;0.40;;
23230;SDS011;11784;49.818;8.632;2022-09-03T08:47:33;0.43;;;0.30;;
23230;SDS011;11784;49.818;8.632;2022-09-03T08:52:41;0.80;;;0.50;;
23230;SDS011;11784;49.818;8.632;2022-09-03T08:55:18;0.98;;;0.50;;
23230;SDS011;11784;49.818;8.632;2022-09-03T08:58:15;1.35;;;0.65;;
23230;SDS011;11784;49.818;8.632;2022-09-03T09:05:46;3.20;;;0.52;;
23230;SDS011;11784;49.818;8.632;2022-09-03T09:14:23;2.17;;;0.73;;
23230;SDS011;11784;49.818;8.632;2022-09-03T09:19:46;1.50;;;0.70;;
23230;SDS011;11784;49.818;8.632;2022-09-03T09:22:29;2.10;;;1.08;;
23230;SDS011;11784;49.818;8.632;2022-09-03T09:25:11;1.02;;;0.60;;
23230;SDS011;11784;49.818;8.632;2022-09-03T09:27:51;1.20;;;0.68;;
23230;SDS011;11784;49.818;8.632;2022-09-03T09:30:25;0.88;;;0.68;;
23230;SDS011;11784;49.818;8.632;2022-09-03T09:32:51;2.42;;;1.05;;
23230;SDS011;11784;49.818;8.632;2022-09-03T09:35:17;3.20;;;0.70;;
23230;SDS011;11784;49.818;8.632;2022-09-03T09:37:47;2.05;;;0.85;;
23230;SDS011;11784;49.818;8.632;2022-09-03T09:40:24;5.32;;;0.77;;
23230;SDS011;11784;49.818;8.632;2022-09-03T09:43:07;0.93;;;0.65;;
23230;SDS011;11784;49.818;8.632;2022-09-03T09:45:34;1.45;;;0.75;;
23230;SDS011;11784;49.818;8.632;2022-09-03T09:48:01;0.50;;;0.45;;
23230;SDS011;11784;49.818;8.632;2022-09-03T09:50:31;0.98;;;0.50;;
23230;SDS011;11784;49.818;8.632;2022-09-03T09:53:06;3.63;;;1.00;;
23230;SDS011;11784;49.818;8.632;2022-09-03T09:55:48;1.58;;;0.70;;
23230;SDS011;11784;49.818;8.632;2022-09-03T09:58:19;0.65;;;0.60;;
23230;SDS011;11784;49.818;8.632;2022-09-03T10:01:09;1.40;;;0.70;;
23230;SDS011;11784;49.818;8.632;2022-09-03T10:03:39;1.17;;;0.75;;
23230;SDS011;11784;49.818;8.632;2022-09-03T10:06:13;0.88;;;0.68;;
23230;SDS011;11784;49.818;8.632;2022-09-03T10:09:31;1.02;;;0.60;;
23230;SDS011;11784;49.818;8.632;2022-09-03T10:14:45;0.75;;;0.60;;
23230;SDS011;11784;49.818;8.632;2022-09-03T10:23:00;4.53;;;0.70;;
23230;SDS011;11784;49.818;8.632;2022-09-03T10:28:31;1.25;;;0.88;;
23230;SDS011;11784;49.818;8.632;2022-09-03T10:36:52;1.23;;;0.70;;
23230;SDS011;11784;49.818;8.632;2022-09-03T10:39:55;0.57;;;0.45;;
23230;SDS011;11784;49.818;8.632;2022-09-03T10:42:36;1.30;;;0.70;;
23230;SDS011;11784;49.818;8.632;2022-09-03T10:45:31;1.42;;;0.70;;
23230;SDS011;11784;49.818;8.632;2022-09-03T10:51:26;1.67;;;0.93;;
23230;SDS011;11784;49.818;8.632;2022-09-03T10:54:05;0.60;;;0.52;;
23230;SDS011;11784;49.818;8.632;2022-09-03T10:56:58;0.82;;;0.70;;
23230;SDS011;11784;49.818;8.632;2022-09-03T10:59:35;1.13;;;0.60;;
23230;SDS011;11784;49.818;8.632;2022-09-03T11:02:19;1.63;;;0.70;;
23230;SDS011;11784;49.818;8.632;2022-09-03T11:04:59;1.23;;;0.90;;
23230;SDS011;11784;49.818;8.632;2022-09-03T11:07:34;1.02;;;0.77;;
23230;SDS011;11784;49.818;8.632;2022-09-03T11:15:35;4.53;;;0.80;;
23230;SDS011;11784;49.818;8.632;2022-09-03T11:18:21;1.00;;;0.65;;
23230;SDS011;11784;49.818;8.632;2022-09-03T11:21:09;2.10;;;0.95;;
23230;SDS011;11784;49.818;8.632;2022-09-03T11:23:40;0.93;;;0.80;;
23230;SDS011;11784;49.818;8.632;2022-09-03T11:26:11;1.25;;;0.60;;
23230;SDS011;11784;49.818;8.632;2022-09-03T11:28:41;0.63;;;0.50;;
23230;SDS011;11784;49.818;8.632;2022-09-03T11:31:25;5.35;;;0.82;;
23230;SDS011;11784;49.818;8.632;2022-09-03T11:34:25;1.35;;;0.93;;
23230;SDS011;11784;49.818;8.632;2022-09-03T11:37:06;0.77;;;0.77;;
23230;SDS011;11784;49.818;8.632;2022-09-03T11:39:42;1.30;;;0.77;;
23230;SDS011;11784;49.818;8.632;2022-09-03T11:42:11;1.85;;;0.90;;
23230;SDS011;11784;49.818;8.632;2022-09-03T11:44:51;1.98;;;0.93;;
23230;SDS011;11784;49.818;8.632;2022-09-03T11:47:24;0.73;;;0.60;;
23230;SDS011;11784;49.818;8.632;2022-09-03T11:50:07;1.60;;;0.63;;
23230;SDS011;11784;49.818;8.632;2022-09-03T11:52:51;1.90;;;1.00;;
23230;SDS011;11784;49.818;8.632;2022-09-03T11:55:28;1.00;;;0.75;;
23230;SDS011;11784;49.818;8.632;2022-09-03T11:57:58;1.15;;;0.68;;
23230;SDS011;11784;49.818;8.632;2022-09-03T12:00:34;2.60;;;0.90;;
23230;SDS011;11784;49.818;8.632;2022-09-03T12:03:02;1.83;;;0.88;;
23230;SDS011;11784;49.818;8.632;2022-09-03T12:19:26;0.80;;;0.80;;
23230;SDS011;11784;49.818;8.632;2022-09-03T12:22:12;0.82;;;0.55;;
23230;SDS011;11784;49.818;8.632;2022-09-03T12:24:39;1.55;;;0.80;;
23230;SDS011;11784;49.818;8.632;2022-09-03T12:27:07;1.63;;;1.10;;
23230;SDS011;11784;49.818;8.632;2022-09-03T12:29:39;3.67;;;1.38;;
23230;SDS011;11784;49.818;8.632;2022-09-03T12:32:17;2.78;;;1.35;;
23230;SDS011;11784;49.818;8.632;2022-09-03T12:34:42;1.23;;;0.75;;
23230;SDS011;11784;49.818;8.632;2022-09-03T12:37:18;2.78;;;1.05;;
23230;SDS011;11784;49.818;8.632;2022-09-03T12:39:51;1.67;;;0.93;;
23230;SDS011;11784;49.818;8.632;2022-09-03T12:42:28;2.90;;;0.80;;
23230;SDS011;11784;49.818;8.632;2022-09-03T12:45:03;0.88;;;0.65;;
23230;SDS011;11784;49.818;8.632;2022-09-03T12:47:39;0.90;;;0.50;;
23230;SDS011;11784;49.818;8.632;2022-09-03T12:50:06;1.52;;;0.98;;
23230;SDS011;11784;49.818;8.632;2022-09-03T12:55:25;0.75;;;0.70;;
23230;SDS011;11784;49.818;8.632;2022-09-03T13:03:15;0.93;;;0.70;;
23230;SDS011;11784;49.818;8.632;2022-09-03T13:05:48;1.20;;;0.93;;
23230;SDS011;11784;49.818;8.632;2022-09-03T13:08:28;2.67;;;0.90;;
23230;SDS011;11784;49.818;8.632;2022-09-03T13:10:59;1.42;;;0.80;;
23230;SDS011;11784;49.818;8.632;2022-09-03T13:13:29;0.93;;;0.70;;
23230;SDS011;11784;49.818;8.632;2022-09-03T13:21:09;1.08;;;0.77;;
23230;SDS011;11784;49.818;8.632;2022-09-03T13:29:20;3.25;;;0.80;;
23230;SDS011;11784;49.818;8.632;2022-09-03T13:32:25;1.80;;;0.90;;
23230;SDS011;11784;49.818;8.632;2022-09-03T13:35:16;0.40;;;0.40;;
23230;SDS011;11784;49.818;8.632;2022-09-03T13:37:54;1.00;;;0.60;;
23230;SDS011;11784;49.818;8.632;2022-09-03T13:42:51;0.73;;;0.40;;
23230;SDS011;11784;49.818;8.632;2022-09-03T13:54:22;0.65;;;0.40;;
23230;SDS011;11784;49.818;8.632;2022-09-03T13:57:01;0.20;;;0.20;;
23230;SDS011;11784;49.818;8.632;2022-09-03T14:02:25;0.60;;;0.40;;
23230;SDS011;11784;49.818;8.632;2022-09-03T14:05:12;0.70;;;0.50;;
23230;SDS011;11784;49.818;8.632;2022-09-03T14:13:26;1.45;;;0.50;;
23230;SDS011;11784;49.818;8.632;2022-09-03T14:19:20;0.45;;;0.45;;
23230;SDS011;11784;49.818;8.632;2022-09-03T14:21:58;0.60;;;0.32;;
23230;SDS011;11784;49.818;8.632;2022-09-03T14:27:25;1.33;;;0.38;;
23230;SDS011;11784;49.818;8.632;2022-09-03T14:29:58;0.80;;;0.50;;
23230;SDS011;11784;49.818;8.632;2022-09-03T14:32:35;0.32;;;0.30;;
23230;SDS011;11784;49.818;8.632;2022-09-03T14:35:15;1.05;;;0.45;;
23230;SDS011;11784;49.818;8.632;2022-09-03T14:40:46;0.43;;;0.40;;
23230;SDS011;11784;49.818;8.632;2022-09-03T14:46:25;0.55;;;0.50;;
23230;SDS011;11784;49.818;8.632;2022-09-03T14:49:02;1.83;;;0.82;;
23230;SDS011;11784;49.818;8.632;2022-09-03T14:57:48;4.20;;;0.65;;
23230;SDS011;11784;49.818;8.632;2022-09-03T15:03:17;1.35;;;0.50;;
23230;SDS011;11784;49.818;8.632;2022-09-03T15:11:55;0.68;;;0.50;;
23230;SDS011;11784;49.818;8.632;2022-09-03T15:14:34;0.43;;;0.43;;
23230;SDS011;11784;49.818;8.632;2022-09-03T15:23:15;0.80;;;0.47;;
23230;SDS011;11784;49.818;8.632;2022-09-03T15:28:54;1.05;;;0.50;;
23230;SDS011;11784;49.818;8.632;2022-09-03T15:36:53;0.80;;;0.50;;
23230;SDS011;11784;49.818;8.632;2022-09-03T15:39:26;0.47;;;0.40;;
23230;SDS011;11784;49.818;8.632;2022-09-03T15:41:56;1.02;;;0.60;;
23230;SDS011;11784;49.818;8.632;2022-09-03T15:44:25;0.65;;;0.50;;
23230;SDS011;11784;49.818;8.632;2022-09-03T15:47:08;0.50;;;0.50;;
23230;SDS011;11784;49.818;8.632;2022-09-03T15:50:01;0.57;;;0.50;;
23230;SDS011;11784;49.818;8.632;2022-09-03T15:52:55;0.73;;;0.38;;
23230;SDS011;11784;49.818;8.632;2022-09-03T15:55:49;0.47;;;0.40;;
23230;SDS011;11784;49.818;8.632;2022-09-03T16:01:43;0.43;;;0.30;;
23230;SDS011;11784;49.818;8.632;2022-09-03T16:06:55;2.25;;;0.57;;
23230;SDS011;11784;49.818;8.632;2022-09-03T16:14:54;0.90;;;0.60;;
23230;SDS011;11784;49.818;8.632;2022-09-03T16:17:30;1.10;;;0.70;;
23230;SDS011;11784;49.818;8.632;2022-09-03T16:20:05;0.95;;;0.50;;
23230;SDS011;11784;49.818;8.632;2022-09-03T16:22:42;1.23;;;0.52;;
23230;SDS011;11784;49.818;8.632;2022-09-03T16:30:56;1.27;;;0.77;;
23230;SDS011;11784;49.818;8.632;2022-09-03T16:33:40;0.98;;;0.50;;
23230;SDS011;11784;49.818;8.632;2022-09-03T16:42:23;3.92;;;0.65;;
23230;SDS011;11784;49.818;8.632;2022-09-03T16:45:02;0.93;;;0.70;;
23230;SDS011;11784;49.818;8.632;2022-09-03T16:47:54;0.52;;;0.45;;
23230;SDS011;11784;49.818;8.632;2022-09-03T16:50:54;0.70;;;0.55;;
23230;SDS011;11784;49.818;8.632;2022-09-03T17:07:03;0.20;;;0.20;;
23230;SDS011;11784;49.818;8.632;2022-09-03T17:15:08;0.88;;;0.40;;
23230;SDS011;11784;49.818;8.632;2022-09-03T17:26:09;0.30;;;0.17;;
23230;SDS011;11784;49.818;8.632;2022-09-03T17:37:37;0.10;;;0.10;;
23230;SDS011;11784;49.818;8.632;2022-09-03T17:43:04;0.65;;;0.20;;
23230;SDS011;11784;49.818;8.632;2022-09-03T17:48:23;0.10;;;0.10;;
23230;SDS011;11784;49.818;8.632;2022-09-03T17:51:57;0.40;;;0.20;;
23230;SDS011;11784;49.818;8.632;2022-09-03T17:54:14;0.65;;;0.20;;
23230;SDS011;11784;49.818;8.632;2022-09-03T17:57:04;0.77;;;0.30;;
23230;SDS011;11784;49.818;8.632;2022-09-03T18:02:27;2.55;;;0.90;;
23230;SDS011;11784;49.818;8.632;2022-09-03T18:05:01;1.92;;;0.70;;
23230;SDS011;11784;49.818;8.632;2022-09-03T18:20:52;3.70;;;0.50;;
23230;SDS011;11784;49.818;8.632;2022-09-03T18:26:55;0.70;;;0.32;;
23230;SDS011;11784;49.818;8.632;2022-09-03T18:29:44;0.40;;;0.32;;
23230;SDS011;11784;49.818;8.632;2022-09-03T18:32:36;0.52;;;0.15;;
23230;SDS011;11784;49.818;8.632;2022-09-03T18:35:20;0.35;;;0.30;;
23230;SDS011;11784;49.818;8.632;2022-09-03T18:38:07;0.75;;;0.30;;
23230;SDS011;11784;49.818;8.632;2022-09-03T18:40:59;0.55;;;0.40;;
23230;SDS011;11784;49.818;8.632;2022-09-03T18:44:02;0.47;;;0.30;;
23230;SDS011;11784;49.818;8.632;2022-09-03T18:50:06;0.65;;;0.30;;
23230;SDS011;11784;49.818;8.632;2022-09-03T18:53:04;1.02;;;0.43;;
23230;SDS011;11784;49.818;8.632;2022-09-03T18:55:59;0.95;;;0.40;;
23230;SDS011;11784;49.818;8.632;2022-09-03T19:01:55;1.05;;;0.38;;
23230;SDS011;11784;49.818;8.632;2022-09-03T19:10:47;1.42;;;0.40;;
23230;SDS011;11784;49.818;8.632;2022-09-03T19:13:34;1.10;;;0.40;;
23230;SDS011;11784;49.818;8.632;2022-09-03T19:22:11;1.17;;;0.40;;
23230;SDS011;11784;49.818;8.632;2022-09-03T19:25:01;2.45;;;0.45;;
23230;SDS011;11784;49.818;8.632;2022-09-03T19:28:05;0.40;;;0.30;;
23230;SDS011;11784;49.818;8.632;2022-09-03T19:31:00;1.00;;;0.35;;
23230;SDS011;11784;49.818;8.632;2022-09-03T19:34:02;0.47;;;0.47;;
23230;SDS011;11784;49.818;8.632;2022-09-03T19:46:29;0.93;;;0.57;;
23230;SDS011;11784;49.818;8.632;2022-09-03T19:52:51;0.47;;;0.40;;
23230;SDS011;11784;49.818;8.632;2022-09-03T19:55:51;1.67;;;1.08;;
23230;SDS011;11784;49.818;8.632;2022-09-03T19:58:37;0.93;;;0.40;;
23230;SDS011;11784;49.818;8.632;2022-09-03T20:01:28;0.50;;;0.40;;
23230;SDS011;11784;49.818;8.632;2022-09-03T20:04:19;0.43;;;0.40;;
23230;SDS011;11784;49.818;8.632;2022-09-03T20:07:20;0.80;;;0.43;;
23230;SDS011;11784;49.818;8.632;2022-09-03T20:10:07;1.45;;;0.75;;
23230;SDS011;11784;49.818;8.632;2022-09-03T20:12:55;0.43;;;0.32;;
23230;SDS011;11784;49.818;8.632;2022-09-03T20:15:40;0.93;;;0.35;;
23230;SDS011;11784;49.818;8.632;2022-09-03T20:18:16;0.88;;;0.60;;
23230;SDS011;11784;49.818;8.632;2022-09-03T20:21:05;0.47;;;0.30;;
23230;SDS011;11784;49.818;8.632;2022-09-03T20:23:56;0.45;;;0.35;;
23230;SDS011;11784;49.818;8.632;2022-09-03T20:37:40;1.38;;;0.57;;
23230;SDS011;11784;49.818;8.632;2022-09-03T20:40:16;0.47;;;0.40;;
23230;SDS011;11784;49.818;8.632;2022-09-03T20:48:30;1.25;;;0.30;;
23230;SDS011;11784;49.818;8.632;2022-09-03T20:51:19;0.63;;;0.50;;
23230;SDS011;11784;49.818;8.632;2022-09-03T20:56:52;0.60;;;0.40;;
23230;SDS011;11784;49.818;8.632;2022-09-03T21:07:38;0.63;;;0.50;;
23230;SDS011;11784;49.818;8.632;2022-09-03T21:10:24;1.77;;;0.60;;
23230;SDS011;11784;49.818;8.632;2022-09-03T21:13:05;0.90;;;0.40;;
23230;SDS011;11784;49.818;8.632;2022-09-03T21:15:40;1.33;;;0.50;;
23230;SDS011;11784;49.818;8.632;2022-09-03T21:18:23;0.35;;;0.35;;
23230;SDS011;11784;49.818;8.632;2022-09-03T21:21:10;1.35;;;0.60;;